createdAt,value
2022-12-27T00:05:23.990Z,2.70
2022-12-27T00:11:30.171Z,2.83
2022-12-27T00:17:31.953Z,2.78
2022-12-27T00:23:36.641Z,3.08
2022-12-27T00:29:38.491Z,3.00
2022-12-27T00:35:40.229Z,3.05
2022-12-27T00:41:42.031Z,2.72
2022-12-27T00:47:43.775Z,3.13
2022-12-27T00:53:46.387Z,2.83
2022-12-27T00:59:48.281Z,3.08
2022-12-27T01:05:50.053Z,2.90
2022-12-27T01:11:51.818Z,2.22
2022-12-27T01:17:53.693Z,2.47
2022-12-27T01:23:56.094Z,2.30
2022-12-27T01:29:57.841Z,2.50
2022-12-27T01:36:11.649Z,2.47
2022-12-27T01:42:36.295Z,2.30
2022-12-27T01:48:38.090Z,2.25
2022-12-27T01:54:40.781Z,2.15
2022-12-27T02:00:46.100Z,2.45
2022-12-27T02:06:48.644Z,2.53
2022-12-27T02:12:50.725Z,2.00
2022-12-27T02:18:52.559Z,2.50
2022-12-27T02:25:06.496Z,2.75
2022-12-27T02:31:16.189Z,2.30
2022-12-27T02:37:20.381Z,2.80
2022-12-27T02:43:40.917Z,2.80
2022-12-27T02:50:02.476Z,3.15
2022-12-27T02:56:50.756Z,2.72
2022-12-27T03:03:21.665Z,2.83
2022-12-27T03:10:04.243Z,3.47
2022-12-27T03:16:18.025Z,3.88
2022-12-27T03:22:41.620Z,3.10
2022-12-27T03:29:03.788Z,3.03
2022-12-27T03:35:16.052Z,3.60
2022-12-27T03:41:57.074Z,4.40
2022-12-27T03:48:06.148Z,4.10
2022-12-27T03:54:31.782Z,4.60
2022-12-27T04:00:33.557Z,4.65
2022-12-27T04:06:35.324Z,4.82
2022-12-27T04:12:55.821Z,4.85
2022-12-27T04:19:16.242Z,4.47
2022-12-27T04:25:36.769Z,5.32
2022-12-27T04:31:56.904Z,5.18
2022-12-27T04:37:58.833Z,5.53
2022-12-27T04:44:19.437Z,5.05
2022-12-27T04:50:50.675Z,4.88
2022-12-27T04:56:52.436Z,5.03
2022-12-27T05:02:54.461Z,5.20
2022-12-27T05:09:19.932Z,5.35
2022-12-27T05:15:24.852Z,5.20
2022-12-27T05:21:27.071Z,6.65
2022-12-27T05:27:28.973Z,5.70
2022-12-27T05:33:31.776Z,6.10
2022-12-27T05:39:33.522Z,5.45
2022-12-27T05:45:35.282Z,5.95
2022-12-27T05:51:37.006Z,6.20
2022-12-27T05:57:38.999Z,5.55
2022-12-27T06:03:40.949Z,6.40
2022-12-27T06:09:42.822Z,6.32
2022-12-27T06:15:44.583Z,5.88
2022-12-27T06:21:46.357Z,5.43
2022-12-27T06:27:48.247Z,5.47
2022-12-27T06:33:51.321Z,5.78
2022-12-27T06:39:53.083Z,5.88
2022-12-27T06:46:00.027Z,7.00
2022-12-27T06:52:01.820Z,6.57
2022-12-27T06:58:03.620Z,6.30
2022-12-27T07:04:05.589Z,6.68
2022-12-27T07:10:07.794Z,6.63
2022-12-27T07:16:11.968Z,5.32
2022-12-27T07:22:13.751Z,5.50
2022-12-27T07:28:15.522Z,5.18
2022-12-27T07:34:17.280Z,5.82
2022-12-27T07:40:19.037Z,6.07
2022-12-27T07:46:23.433Z,6.40
2022-12-27T07:52:26.054Z,5.70
2022-12-27T07:58:27.803Z,6.30
2022-12-27T08:04:29.771Z,5.78
2022-12-27T08:10:31.538Z,6.05
2022-12-27T08:16:33.342Z,6.22
2022-12-27T08:22:35.078Z,5.82
2022-12-27T08:28:37.053Z,5.40
2022-12-27T08:34:38.904Z,6.18
2022-12-27T08:40:42.535Z,5.70
2022-12-27T08:46:44.485Z,6.10
2022-12-27T08:52:46.269Z,5.22
2022-12-27T08:58:51.393Z,5.28
2022-12-27T09:04:53.095Z,5.28
2022-12-27T09:10:54.799Z,5.07
2022-12-27T09:16:56.526Z,5.88
2022-12-27T09:22:59.545Z,4.90
2022-12-27T09:29:01.456Z,4.82
2022-12-27T09:35:03.825Z,5.70
2022-12-27T09:42:25.658Z,5.45
2022-12-27T09:47:53.140Z,5.05
2022-12-27T09:54:13.186Z,6.05
2022-12-27T10:00:16.524Z,7.05
2022-12-27T10:06:50.914Z,5.85
2022-12-27T10:13:04.577Z,6.00
2022-12-27T10:19:37.683Z,5.10
2022-12-27T10:25:40.304Z,4.85
2022-12-27T10:31:43.634Z,4.93
2022-12-27T10:37:46.630Z,5.32
2022-12-27T10:43:52.220Z,5.57
2022-12-27T10:50:13.248Z,6.25
2022-12-27T10:56:19.838Z,5.55
2022-12-27T11:02:21.687Z,4.68
2022-12-27T11:08:24.639Z,4.50
2022-12-27T11:14:26.381Z,4.20
2022-12-27T11:20:37.275Z,4.57
2022-12-27T11:26:53.971Z,4.72
2022-12-27T11:33:01.828Z,4.47
2022-12-27T11:39:05.068Z,5.22
2022-12-27T11:45:40.820Z,5.10
2022-12-27T11:51:45.571Z,4.82
2022-12-27T12:04:43.361Z,5.23
2022-12-27T12:11:23.302Z,4.32
2022-12-27T12:17:40.560Z,5.18
2022-12-27T12:23:42.268Z,4.43
2022-12-27T12:29:59.217Z,4.78
2022-12-27T12:36:13.335Z,4.20
2022-12-27T12:42:18.766Z,4.17
2022-12-27T12:48:32.614Z,3.40
2022-12-27T12:54:47.476Z,3.95
2022-12-27T13:07:40.462Z,4.07
2022-12-27T13:14:01.446Z,3.80
2022-12-27T13:20:15.825Z,4.22
2022-12-27T13:26:46.151Z,4.40
2022-12-27T13:32:56.491Z,6.45
2022-12-27T13:39:07.401Z,7.32
2022-12-27T13:45:37.297Z,7.57
2022-12-27T13:51:46.255Z,7.55
2022-12-27T13:58:12.618Z,7.57
2022-12-27T14:04:52.325Z,8.27
2022-12-27T14:11:00.693Z,8.20
2022-12-27T14:17:33.815Z,7.75
2022-12-27T14:23:50.857Z,8.02
2022-12-27T14:30:04.776Z,7.38
2022-12-27T14:36:51.116Z,7.90
2022-12-27T14:43:17.099Z,8.25
2022-12-27T14:49:40.412Z,6.63
2022-12-27T14:56:12.679Z,5.65
2022-12-27T15:02:42.308Z,5.18
2022-12-27T15:09:05.391Z,5.07
2022-12-27T15:15:16.833Z,5.88
2022-12-27T15:22:01.613Z,6.30
2022-12-27T15:28:15.199Z,5.47
2022-12-27T15:34:37.515Z,4.50
2022-12-27T15:40:43.039Z,4.38
2022-12-27T15:47:06.172Z,4.40
2022-12-27T15:53:37.356Z,4.82
2022-12-27T16:00:04.888Z,4.22
2022-12-27T16:06:10.359Z,4.03
2022-12-27T16:12:30.826Z,3.92
2022-12-27T16:19:08.826Z,3.80
2022-12-27T16:25:19.944Z,3.22
2022-12-27T16:31:24.974Z,3.45
2022-12-27T16:37:44.508Z,3.13
2022-12-27T16:43:53.223Z,4.60
2022-12-27T16:50:15.797Z,4.05
2022-12-27T16:56:28.792Z,3.92
2022-12-27T17:02:47.380Z,3.70
2022-12-27T17:09:09.492Z,3.90
2022-12-27T17:15:13.920Z,3.60
2022-12-27T17:21:38.658Z,4.22
2022-12-27T17:27:45.492Z,3.85
2022-12-27T17:34:07.091Z,3.85
2022-12-27T17:40:37.541Z,3.90
2022-12-27T17:47:00.686Z,2.95
2022-12-27T17:53:28.855Z,3.80
2022-12-27T17:59:32.861Z,3.13
2022-12-27T18:05:40.467Z,3.27
2022-12-27T18:11:42.247Z,3.70
2022-12-27T18:17:47.847Z,3.50
2022-12-27T18:23:52.777Z,2.63
2022-12-27T18:29:54.628Z,2.58
2022-12-27T18:35:57.447Z,2.42
2022-12-27T18:42:02.692Z,2.15
2022-12-27T18:48:11.902Z,2.10
2022-12-27T18:54:28.755Z,1.90
2022-12-27T19:00:30.695Z,2.03
2022-12-27T19:06:32.448Z,1.75
2022-12-27T19:12:38.148Z,2.13
2022-12-27T19:18:39.914Z,1.67
2022-12-27T19:24:41.655Z,1.85
2022-12-27T19:30:44.899Z,1.40
2022-12-27T19:36:48.331Z,1.40
2022-12-27T19:42:50.162Z,1.60
2022-12-27T19:49:23.659Z,1.80
2022-12-27T19:55:20.677Z,1.63
2022-12-27T20:01:22.492Z,1.40
2022-12-27T20:07:25.860Z,1.40
2022-12-27T20:13:28.699Z,1.52
2022-12-27T20:19:30.504Z,1.83
2022-12-27T20:25:33.353Z,1.45
2022-12-27T20:31:42.243Z,1.33
2022-12-27T20:37:46.252Z,1.75
2022-12-27T20:43:48.561Z,1.52
2022-12-27T20:49:50.608Z,2.72
2022-12-27T20:55:59.578Z,1.80
2022-12-27T21:02:01.479Z,1.52
2022-12-27T21:08:03.537Z,1.50
2022-12-27T21:14:05.589Z,1.55
2022-12-27T21:20:11.002Z,1.50
2022-12-27T21:26:21.837Z,1.55
2022-12-27T21:32:23.573Z,1.75
2022-12-27T21:38:25.841Z,1.58
2022-12-27T21:44:28.340Z,1.42
2022-12-27T21:50:35.421Z,1.40
2022-12-27T21:56:39.331Z,1.60
2022-12-27T22:02:41.180Z,1.38
2022-12-27T22:08:44.775Z,2.40
2022-12-27T22:14:46.511Z,1.58
2022-12-27T22:20:48.252Z,1.70
2022-12-27T22:26:50.451Z,1.55
2022-12-27T22:32:52.338Z,1.58
2022-12-27T22:38:58.613Z,2.42
2022-12-27T22:45:00.464Z,2.20
2022-12-27T22:51:15.904Z,1.38
2022-12-27T22:57:17.658Z,1.40
2022-12-27T23:03:19.383Z,1.65
2022-12-27T23:09:21.119Z,1.52
2022-12-27T23:15:22.892Z,1.40
2022-12-27T23:21:24.991Z,1.63
2022-12-27T23:27:26.747Z,1.42
2022-12-27T23:33:28.628Z,1.52
2022-12-27T23:39:30.522Z,1.40
2022-12-27T23:45:33.557Z,1.30
2022-12-27T23:51:35.322Z,1.25
2022-12-27T23:57:37.399Z,1.40
